Time;durP1;ratioP1;P1;durP2;ratioP2;P2;SDS_P1;SDS_P2;PMS_P1;PMS_P2;Temp;Humidity;BMP_temperature;BMP_pressure;BME280_temperature;BME280_humidity;BME280_pressure;Samples;Min_cycle;Max_cycle;Signal;HPM_P1;HPM_P2
2021/04/20 00:01:23;;;;;;;5.95;5.05;;;7.90;99.90;;;;;;5032350;28;20125;-74
2021/04/20 00:03:49;;;;;;;6.78;5.38;;;7.80;99.90;;;;;;5032467;28;20539;-72
2021/04/20 00:06:15;;;;;;;5.57;4.72;;;7.80;99.90;;;;;;5032391;28;20021;-75
2021/04/20 00:08:41;;;;;;;5.93;4.63;;;7.80;99.90;;;;;;5031730;28;20024;-74
2021/04/20 00:11:07;;;;;;;6.18;5.13;;;7.80;99.90;;;;;;5014985;28;20388;-75
2021/04/20 00:13:33;;;;;;;5.45;4.72;;;7.70;99.90;;;;;;5031769;28;20021;-74
2021/04/20 00:15:59;;;;;;;5.57;4.65;;;7.70;99.90;;;;;;5032225;28;20623;-74
2021/04/20 00:18:25;;;;;;;5.97;4.88;;;7.70;99.90;;;;;;5031426;28;20037;-73
2021/04/20 00:20:51;;;;;;;5.78;4.95;;;7.80;99.90;;;;;;5032345;28;20049;-73
2021/04/20 00:23:16;;;;;;;5.63;4.80;;;7.70;99.90;;;;;;5031435;28;20021;-73
2021/04/20 00:25:42;;;;;;;6.28;5.03;;;7.70;99.90;;;;;;5032115;28;20099;-71
2021/04/20 00:28:08;;;;;;;6.10;4.75;;;7.70;99.90;;;;;;5031556;28;20025;-73
2021/04/20 00:30:35;;;;;;;5.10;4.47;;;7.70;99.90;;;;;;5032323;28;20040;-73
2021/04/20 00:33:01;;;;;;;5.97;4.80;;;7.70;99.90;;;;;;5030191;28;20381;-72
2021/04/20 00:35:27;;;;;;;5.32;4.55;;;7.70;99.90;;;;;;5031783;28;20037;-73
2021/04/20 00:37:52;;;;;;;5.93;4.72;;;7.60;99.90;;;;;;5031310;28;20044;-74
2021/04/20 00:40:19;;;;;;;5.68;4.78;;;7.50;99.90;;;;;;5031595;28;20061;-78
2021/04/20 00:42:46;;;;;;;5.70;4.65;;;7.50;99.90;;;;;;5012814;28;20504;-74
2021/04/20 00:45:16;;;;;;;5.28;4.60;;;7.50;99.90;;;;;;5011889;28;20033;-74
2021/04/20 00:47:42;;;;;;;5.10;4.60;;;7.50;99.90;;;;;;5011096;28;20064;-72
2021/04/20 00:50:11;;;;;;;5.63;4.93;;;7.50;99.90;;;;;;5011888;28;20117;-73
2021/04/20 00:52:36;;;;;;;5.60;5.00;;;7.50;99.90;;;;;;5011168;28;20025;-75
2021/04/20 00:55:04;;;;;;;5.55;4.70;;;7.40;99.90;;;;;;5011671;28;20152;-76
2021/04/20 00:57:29;;;;;;;5.00;4.50;;;7.50;99.90;;;;;;5011308;28;20375;-73
2021/04/20 00:59:55;;;;;;;6.07;4.97;;;7.40;99.90;;;;;;5011912;28;20497;-75
2021/04/20 01:02:22;;;;;;;6.07;4.90;;;7.40;99.90;;;;;;5010622;28;20033;-75
2021/04/20 01:04:48;;;;;;;5.93;4.90;;;7.50;99.90;;;;;;5011789;28;20026;-75
2021/04/20 01:07:16;;;;;;;6.78;4.90;;;7.50;99.90;;;;;;5011016;28;20113;-74
2021/04/20 01:09:42;;;;;;;5.63;4.60;;;7.50;99.90;;;;;;5012152;28;20022;-73
2021/04/20 01:12:09;;;;;;;5.43;4.82;;;7.50;99.90;;;;;;5011929;28;20060;-75
2021/04/20 01:14:35;;;;;;;5.43;4.70;;;7.50;99.90;;;;;;5011190;28;20437;-76
2021/04/20 01:17:02;;;;;;;5.65;5.05;;;7.50;99.90;;;;;;5011747;28;20542;-75
2021/04/20 01:19:31;;;;;;;7.35;4.72;;;7.60;99.90;;;;;;5010788;28;20029;-75
2021/04/20 01:21:58;;;;;;;6.55;5.30;;;7.70;99.90;;;;;;5011479;28;20096;-75
2021/04/20 01:24:28;;;;;;;5.63;4.85;;;7.70;99.90;;;;;;5010962;28;20364;-77
2021/04/20 01:26:56;;;;;;;6.47;4.93;;;7.90;99.90;;;;;;5011674;28;20390;-75
2021/04/20 01:29:22;;;;;;;5.20;4.60;;;7.80;99.90;;;;;;5011013;28;20053;-77
2021/04/20 01:31:49;;;;;;;7.00;5.15;;;7.70;99.90;;;;;;5011643;28;20037;-75
2021/04/20 01:34:15;;;;;;;5.53;4.60;;;7.80;99.90;;;;;;5010606;28;20065;-76
2021/04/20 01:36:41;;;;;;;7.13;5.43;;;7.70;99.90;;;;;;5011320;28;20048;-76
2021/04/20 01:39:10;;;;;;;6.75;5.40;;;7.80;99.90;;;;;;5010793;28;20045;-75
2021/04/20 01:41:37;;;;;;;6.00;5.07;;;7.80;99.90;;;;;;5018844;28;20132;-75
2021/04/20 01:44:03;;;;;;;6.30;5.45;;;7.80;99.90;;;;;;5032480;28;20496;-74
2021/04/20 01:46:29;;;;;;;5.28;4.40;;;7.80;99.90;;;;;;5035299;28;20030;-76
2021/04/20 01:48:55;;;;;;;5.78;4.90;;;7.70;99.90;;;;;;5034681;28;20033;-75
2021/04/20 01:51:22;;;;;;;5.70;4.65;;;7.80;99.90;;;;;;5035300;28;20033;-74
2021/04/20 01:53:50;;;;;;;6.50;5.18;;;7.80;99.90;;;;;;5034244;28;20412;-74
2021/04/20 01:56:15;;;;;;;6.32;4.95;;;7.80;99.90;;;;;;5035153;28;20077;-74
2021/04/20 01:58:43;;;;;;;7.10;5.18;;;7.80;99.90;;;;;;5034295;28;20560;-77
2021/04/20 02:01:11;;;;;;;8.05;5.00;;;7.90;99.90;;;;;;5034974;28;20409;-75
2021/04/20 02:03:38;;;;;;;6.93;5.07;;;8.10;99.90;;;;;;5034177;28;20025;-77
2021/04/20 02:06:06;;;;;;;5.78;4.78;;;7.90;99.90;;;;;;5034733;28;20473;-76
2021/04/20 02:08:32;;;;;;;6.50;5.10;;;7.80;99.90;;;;;;5034030;28;20022;-76
2021/04/20 02:10:59;;;;;;;5.90;4.68;;;7.70;99.90;;;;;;5034892;28;20115;-76
2021/04/20 02:13:25;;;;;;;6.53;5.03;;;7.80;99.90;;;;;;5014138;28;20525;-77
2021/04/20 02:15:51;;;;;;;5.90;5.00;;;7.80;99.90;;;;;;4999338;28;20582;-76
2021/04/20 02:18:20;;;;;;;5.90;5.03;;;7.80;99.90;;;;;;4994363;28;20034;-76
2021/04/20 02:20:47;;;;;;;7.40;4.93;;;7.80;99.90;;;;;;4977725;28;20044;-76
2021/04/20 02:23:14;;;;;;;8.52;5.18;;;7.80;99.90;;;;;;4995230;28;20109;-77
2021/04/20 02:25:44;;;;;;;9.02;5.50;;;7.80;99.90;;;;;;4994522;28;20069;-77
2021/04/20 02:28:10;;;;;;;6.85;5.22;;;7.90;99.90;;;;;;4995161;28;20044;-78
2021/04/20 02:30:36;;;;;;;5.90;5.25;;;7.80;99.90;;;;;;4994642;28;20182;-73
2021/04/20 02:33:03;;;;;;;8.65;6.10;;;7.90;99.90;;;;;;4994484;28;20022;-75
2021/04/20 02:35:29;;;;;;;6.78;5.57;;;7.90;99.90;;;;;;4994117;28;20030;-76
2021/04/20 02:37:55;;;;;;;7.00;5.53;;;7.90;99.90;;;;;;4994819;28;20080;-76
2021/04/20 02:40:24;;;;;;;6.32;5.60;;;8.00;99.90;;;;;;4993924;28;20018;-77
2021/04/20 02:42:51;;;;;;;7.40;6.03;;;8.00;99.90;;;;;;5026447;28;20032;-73
2021/04/20 02:45:19;;;;;;;6.15;5.25;;;7.90;99.90;;;;;;5021475;28;20041;-77
2021/04/20 02:47:45;;;;;;;5.93;4.60;;;7.90;99.90;;;;;;5002961;28;20118;-75
2021/04/20 02:50:17;;;;;;;7.18;6.25;;;7.90;99.90;;;;;;4994255;28;20386;-75
2021/04/20 02:52:45;;;;;;;6.93;5.60;;;7.90;99.90;;;;;;4994588;28;20056;-75
2021/04/20 02:55:12;;;;;;;7.72;5.90;;;7.80;99.90;;;;;;4993099;28;20061;-76
2021/04/20 02:57:41;;;;;;;7.68;5.97;;;7.90;99.90;;;;;;4994494;28;20110;-77
2021/04/20 03:00:13;;;;;;;10.15;6.00;;;7.90;99.90;;;;;;4993603;28;20098;-75
2021/04/20 03:02:40;;;;;;;6.60;5.35;;;7.90;99.90;;;;;;4994401;28;20037;-75
2021/04/20 03:05:09;;;;;;;6.63;5.85;;;7.80;99.90;;;;;;4993864;28;20073;-74
2021/04/20 03:07:36;;;;;;;7.65;6.78;;;8.00;99.90;;;;;;4993990;28;20465;-75
2021/04/20 03:10:03;;;;;;;7.40;6.07;;;8.10;99.90;;;;;;4976416;28;20026;-78
2021/04/20 03:12:29;;;;;;;9.82;6.53;;;8.20;99.90;;;;;;4994257;28;20101;-74
2021/04/20 03:14:55;;;;;;;8.82;6.78;;;8.20;99.90;;;;;;4993448;28;20045;-76
2021/04/20 03:17:21;;;;;;;10.35;6.60;;;8.30;99.90;;;;;;4976431;28;20066;-77
2021/04/20 03:19:48;;;;;;;10.02;7.00;;;8.20;99.90;;;;;;4993775;28;20106;-76
2021/04/20 03:22:16;;;;;;;9.95;6.53;;;8.20;99.90;;;;;;4994063;28;20049;-77
2021/04/20 03:25:07;;;;;;;9.50;7.05;;;8.20;99.90;;;;;;4976196;28;20027;-77
2021/04/20 03:27:54;;;;;;;8.90;6.10;;;8.30;99.90;;;;;;4993812;28;20023;-77
2021/04/20 03:30:28;;;;;;;8.65;6.35;;;8.30;99.90;;;;;;4975766;28;20073;-75
2021/04/20 03:33:00;;;;;;;8.88;6.63;;;8.30;99.90;;;;;;4993806;28;20367;-76
2021/04/20 03:36:07;;;;;;;12.25;7.05;;;8.20;99.90;;;;;;4993283;28;20053;-76
2021/04/20 03:38:39;;;;;;;11.00;6.35;;;8.30;99.90;;;;;;4993582;28;20030;-76
2021/04/20 03:41:12;;;;;;;9.27;6.63;;;8.30;99.90;;;;;;4993524;28;20030;-76
2021/04/20 03:43:40;;;;;;;7.35;6.20;;;8.30;99.90;;;;;;5033198;28;20527;-76
2021/04/20 03:46:12;;;;;;;8.48;6.75;;;8.30;99.90;;;;;;5014327;28;20028;-76
2021/04/20 03:48:44;;;;;;;8.27;6.43;;;8.30;99.90;;;;;;5032559;28;20030;-74
2021/04/20 03:51:13;;;;;;;11.63;6.25;;;8.30;99.90;;;;;;5032411;28;20014;-72
2021/04/20 03:53:44;;;;;;;8.70;6.38;;;8.30;99.90;;;;;;5032960;28;20049;-75
2021/04/20 03:56:11;;;;;;;9.65;6.90;;;8.40;99.90;;;;;;5032280;28;20037;-74
2021/04/20 03:58:37;;;;;;;9.25;6.53;;;8.40;99.90;;;;;;5032474;28;20018;-75
2021/04/20 04:01:06;;;;;;;8.93;6.22;;;8.40;99.90;;;;;;5032298;28;20078;-74
2021/04/20 04:03:35;;;;;;;8.45;6.40;;;8.50;99.90;;;;;;5032492;28;20060;-74
2021/04/20 04:06:03;;;;;;;8.55;6.80;;;8.50;99.90;;;;;;5031895;28;20032;-72
2021/04/20 04:08:30;;;;;;;8.57;6.88;;;8.50;99.90;;;;;;5031761;28;20021;-74
2021/04/20 04:10:59;;;;;;;10.48;7.70;;;8.50;99.90;;;;;;5032013;28;20033;-74
2021/04/20 04:13:28;;;;;;;13.65;8.70;;;8.60;99.90;;;;;;5032142;28;20029;-75
2021/04/20 04:16:05;;;;;;;14.75;9.07;;;8.60;99.90;;;;;;5031443;28;20047;-76
2021/04/20 04:18:32;;;;;;;11.23;7.70;;;8.70;99.90;;;;;;5032506;28;20026;-77
2021/04/20 04:21:00;;;;;;;13.90;8.48;;;8.60;99.90;;;;;;5031705;28;20508;-75
2021/04/20 04:23:40;;;;;;;12.40;8.00;;;8.70;99.90;;;;;;5032015;28;20026;-74
2021/04/20 04:26:10;;;;;;;9.80;7.53;;;8.70;99.90;;;;;;5032057;28;20037;-74
2021/04/20 04:28:39;;;;;;;15.70;9.30;;;8.70;99.90;;;;;;5032141;28;20026;-75
2021/04/20 04:31:09;;;;;;;11.00;8.10;;;8.80;99.90;;;;;;5031383;28;20176;-75
2021/04/20 04:33:38;;;;;;;13.55;8.57;;;8.80;99.90;;;;;;5032106;28;20034;-75
2021/04/20 04:36:05;;;;;;;14.45;8.98;;;8.80;99.90;;;;;;5030855;28;20049;-75
2021/04/20 04:38:33;;;;;;;12.50;8.55;;;8.90;99.90;;;;;;5031859;28;20049;-76
2021/04/20 04:41:00;;;;;;;12.35;8.07;;;8.90;99.90;;;;;;5031509;28;20029;-74
2021/04/20 04:43:27;;;;;;;10.80;7.88;;;8.90;99.90;;;;;;5013896;28;20533;-74
2021/04/20 04:45:57;;;;;;;10.80;7.30;;;8.90;99.90;;;;;;5011808;28;20037;-74
2021/04/20 04:48:25;;;;;;;10.80;8.07;;;8.90;99.90;;;;;;5012219;28;20030;-74
2021/04/20 04:50:53;;;;;;;9.90;7.82;;;8.90;99.90;;;;;;5011621;28;20378;-74
2021/04/20 04:53:19;;;;;;;9.25;7.00;;;8.90;99.90;;;;;;5011853;28;20022;-77
2021/04/20 04:55:45;;;;;;;9.55;7.28;;;8.90;99.90;;;;;;5011543;28;20045;-74
2021/04/20 04:58:12;;;;;;;9.48;6.75;;;8.90;99.90;;;;;;5011505;28;20018;-72
2021/04/20 05:00:39;;;;;;;10.20;7.00;;;8.90;99.90;;;;;;5011437;28;20156;-73
2021/04/20 05:03:06;;;;;;;9.77;6.68;;;9.00;99.90;;;;;;5011880;28;20046;-73
2021/04/20 05:05:36;;;;;;;9.65;7.07;;;9.00;99.90;;;;;;5011050;28;20669;-76
2021/04/20 05:08:02;;;;;;;11.23;7.78;;;9.00;99.90;;;;;;5011778;28;20030;-73
2021/04/20 05:10:28;;;;;;;11.27;7.47;;;8.90;99.90;;;;;;5012211;28;20030;-75
2021/04/20 05:12:55;;;;;;;11.93;7.63;;;8.90;99.90;;;;;;5007957;28;20049;-76
2021/04/20 05:15:23;;;;;;;33.75;22.33;;;8.80;99.90;;;;;;5010825;28;20034;-81
2021/04/20 05:17:49;;;;;;;13.10;10.23;;;9.40;99.90;;;;;;5010155;28;20116;-75
2021/04/20 05:20:20;;;;;;;9.65;7.50;;;9.00;99.90;;;;;;5010965;28;20120;-77
2021/04/20 05:22:47;;;;;;;8.18;6.78;;;9.00;99.90;;;;;;5010335;28;20103;-73
2021/04/20 05:25:15;;;;;;;8.85;6.70;;;8.60;99.90;;;;;;5011027;28;20028;-73
2021/04/20 05:27:43;;;;;;;37.80;25.63;;;8.50;99.90;;;;;;5010039;28;20423;-74
2021/04/20 05:30:10;;;;;;;22.83;15.18;;;8.80;99.90;;;;;;5010153;28;20378;-75
2021/04/20 05:32:40;;;;;;;15.55;10.18;;;8.90;99.90;;;;;;5010291;28;20046;-78
2021/04/20 05:35:11;;;;;;;21.10;13.80;;;9.00;99.90;;;;;;5011052;28;20026;-76
2021/04/20 05:37:39;;;;;;;9.60;7.55;;;8.70;99.90;;;;;;5010677;28;20103;-75
2021/04/20 05:40:22;;;;;;;9.75;8.05;;;8.90;99.90;;;;;;5011138;28;20520;-74
2021/04/20 05:42:50;;;;;;;9.45;6.93;;;8.90;99.90;;;;;;5021257;28;20036;-76
2021/04/20 05:45:16;;;;;;;9.13;7.28;;;9.00;99.90;;;;;;5013183;28;20028;-74
2021/04/20 05:47:46;;;;;;;11.50;8.77;;;9.20;99.90;;;;;;5030167;28;20029;-77
2021/04/20 05:50:23;;;;;;;11.95;7.60;;;9.40;99.90;;;;;;5031156;28;20053;-76
2021/04/20 05:52:50;;;;;;;10.25;7.60;;;9.50;99.90;;;;;;5029720;28;20358;-76
2021/04/20 05:55:17;;;;;;;13.15;8.02;;;9.70;99.90;;;;;;5030796;28;20492;-73
2021/04/20 05:57:47;;;;;;;11.15;7.97;;;9.80;99.90;;;;;;5030175;28;20034;-75
2021/04/20 06:00:14;;;;;;;13.10;7.55;;;9.90;99.90;;;;;;5030747;28;20029;-74
2021/04/20 06:02:41;;;;;;;11.20;6.90;;;10.10;99.90;;;;;;5005050;28;20049;-76
2021/04/20 06:05:19;;;;;;;11.20;7.70;;;10.20;99.90;;;;;;5010556;28;20022;-76
2021/04/20 06:07:49;;;;;;;28.60;19.75;;;10.30;99.90;;;;;;5009829;28;20358;-79
2021/04/20 06:10:16;;;;;;;63.70;36.95;;;10.70;99.90;;;;;;5010840;28;20057;-77
2021/04/20 06:12:44;;;;;;;26.67;18.38;;;11.20;99.90;;;;;;5009984;28;20118;-77
2021/04/20 06:15:11;;;;;;;15.85;9.63;;;11.10;99.90;;;;;;5010293;28;20038;-73
2021/04/20 06:17:39;;;;;;;12.65;8.45;;;10.90;99.90;;;;;;5010034;28;20378;-75
2021/04/20 06:20:08;;;;;;;11.63;7.70;;;10.90;99.90;;;;;;5010699;28;20098;-75
2021/04/20 06:22:34;;;;;;;10.40;7.47;;;10.90;99.90;;;;;;5010115;28;20029;-76
2021/04/20 06:25:01;;;;;;;8.07;6.20;;;10.80;99.90;;;;;;5010863;28;20050;-76
2021/04/20 06:27:28;;;;;;;12.43;6.78;;;10.80;99.90;;;;;;5009763;28;20103;-75
2021/04/20 06:29:54;;;;;;;12.27;6.18;;;10.80;99.90;;;;;;4993110;28;20438;-75
2021/04/20 06:32:20;;;;;;;9.98;6.82;;;10.60;99.90;;;;;;5013423;28;20421;-74
2021/04/20 06:34:47;;;;;;;8.40;6.45;;;10.50;99.90;;;;;;5014611;28;20028;-76
2021/04/20 06:37:14;;;;;;;8.98;6.05;;;10.40;99.90;;;;;;5013229;28;20050;-76
2021/04/20 06:39:40;;;;;;;8.00;5.68;;;10.50;99.90;;;;;;5014509;28;20033;-76
2021/04/20 06:42:11;;;;;;;6.90;5.55;;;10.50;99.90;;;;;;5017315;28;20412;-76
2021/04/20 06:44:55;;;;;;;9.68;6.55;;;10.00;99.90;;;;;;5034102;28;20173;-75
2021/04/20 06:47:25;;;;;;;8.18;5.47;;;10.00;99.90;;;;;;5018278;28;20482;-77
2021/04/20 06:50:04;;;;;;;7.32;5.97;;;10.20;99.90;;;;;;5014185;28;20036;-77
2021/04/20 06:52:36;;;;;;;7.80;6.00;;;10.40;99.90;;;;;;5013514;28;20108;-76
2021/04/20 06:55:10;;;;;;;11.40;5.90;;;10.40;99.90;;;;;;5013863;28;20048;-77
2021/04/20 06:57:52;;;;;;;8.27;6.35;;;10.30;99.90;;;;;;5013130;28;20371;-76
2021/04/20 07:00:21;;;;;;;8.38;6.45;;;10.60;99.90;;;;;;5013990;28;20033;-77
2021/04/20 07:03:10;;;;;;;8.65;6.20;;;10.90;99.90;;;;;;5012791;28;20026;-74
2021/04/20 07:05:39;;;;;;;8.55;6.22;;;11.10;99.90;;;;;;5013647;28;20101;-76
2021/04/20 07:08:31;;;;;;;11.15;6.65;;;11.00;99.90;;;;;;5013140;28;20041;-75
2021/04/20 07:10:57;;;;;;;9.68;6.22;;;11.20;99.90;;;;;;5013218;28;20026;-77
2021/04/20 07:13:26;;;;;;;9.07;6.40;;;11.30;99.90;;;;;;5012850;28;20029;-75
2021/04/20 07:15:56;;;;;;;8.88;5.75;;;11.20;99.90;;;;;;5013450;28;20042;-76
2021/04/20 07:18:48;;;;;;;10.70;6.75;;;11.20;99.90;;;;;;5012931;28;20168;-76
2021/04/20 07:21:22;;;;;;;9.68;6.55;;;11.50;99.90;;;;;;5013186;28;20042;-78
2021/04/20 07:24:09;;;;;;;10.35;7.10;;;11.80;99.90;;;;;;5012329;28;20461;-74
2021/04/20 07:26:50;;;;;;;11.80;7.38;;;11.90;99.90;;;;;;5013265;28;20428;-74
2021/04/20 07:29:35;;;;;;;10.40;7.47;;;12.00;99.90;;;;;;5011524;28;20473;-74
2021/04/20 07:32:31;;;;;;;17.52;11.60;;;11.60;99.90;;;;;;5013092;28;20365;-76
2021/04/20 07:35:16;;;;;;;16.63;10.65;;;11.80;99.90;;;;;;5012693;28;20402;-74
2021/04/20 07:38:12;;;;;;;9.82;6.75;;;11.90;99.90;;;;;;5012535;28;20045;-76
2021/04/20 07:41:01;;;;;;;11.20;7.00;;;11.50;99.90;;;;;;5013058;28;20033;-77
2021/04/20 07:44:00;;;;;;;12.50;8.50;;;11.70;99.90;;;;;;5012490;28;20116;-76
2021/04/20 07:46:44;;;;;;;8.77;6.63;;;11.90;99.90;;;;;;5011911;28;20034;-77
2021/04/20 07:49:18;;;;;;;12.95;8.52;;;11.90;99.90;;;;;;5009722;28;20070;-74
2021/04/20 07:51:46;;;;;;;14.00;8.43;;;12.10;99.90;;;;;;5012693;28;20129;-76
2021/04/20 07:54:31;;;;;;;14.75;8.90;;;12.20;99.90;;;;;;5012026;28;20032;-73
2021/04/20 07:57:19;;;;;;;13.80;8.52;;;12.30;99.90;;;;;;5011471;28;20056;-74
2021/04/20 08:00:09;;;;;;;16.60;9.02;;;12.30;99.90;;;;;;4992579;28;20022;-76
2021/04/20 08:02:38;;;;;;;10.98;8.10;;;12.40;99.90;;;;;;5009461;28;20030;-77
2021/04/20 08:05:36;;;;;;;13.27;8.63;;;12.20;99.90;;;;;;5011657;28;20018;-76
2021/04/20 08:08:07;;;;;;;12.00;7.60;;;12.30;99.90;;;;;;5009134;28;20374;-76
2021/04/20 08:10:54;;;;;;;11.23;7.30;;;12.00;99.90;;;;;;5012762;28;20026;-77
2021/04/20 08:13:29;;;;;;;10.93;7.18;;;11.90;99.90;;;;;;5011561;28;20022;-77
2021/04/20 08:15:58;;;;;;;13.48;8.93;;;12.10;99.90;;;;;;5012508;28;20034;-76
2021/04/20 08:18:48;;;;;;;13.80;7.90;;;12.30;99.90;;;;;;5011913;28;20034;-77
2021/04/20 08:21:14;;;;;;;11.13;8.50;;;12.50;99.90;;;;;;5011765;28;20030;-74
2021/04/20 08:23:46;;;;;;;14.25;8.15;;;12.70;99.90;;;;;;5011302;28;20287;-75
2021/04/20 08:26:20;;;;;;;14.35;9.27;;;13.00;99.90;;;;;;5011531;28;20026;-73
2021/04/20 08:29:00;;;;;;;14.98;10.15;;;13.00;99.90;;;;;;5011145;28;20113;-76
2021/04/20 08:31:43;;;;;;;14.18;9.00;;;13.00;99.90;;;;;;5011310;28;20022;-75
2021/04/20 08:34:45;;;;;;;15.07;9.13;;;13.70;99.90;;;;;;5011187;28;20191;-78
2021/04/20 08:37:33;;;;;;;12.68;8.55;;;14.00;99.90;;;;;;4984034;28;20046;-78
2021/04/20 08:40:14;;;;;;;12.95;8.18;;;14.20;99.90;;;;;;5010245;28;20072;-77
2021/04/20 08:42:47;;;;;;;14.15;9.10;;;14.00;99.90;;;;;;5016730;28;20017;-76
2021/04/20 08:45:24;;;;;;;12.05;7.93;;;14.60;99.90;;;;;;5030992;28;20040;-80
2021/04/20 08:48:29;;;;;;;12.32;7.38;;;14.40;99.90;;;;;;5012567;28;20118;-79
2021/04/20 08:51:23;;;;;;;13.18;7.78;;;15.10;99.90;;;;;;5007757;28;20417;-79
2021/04/20 08:54:20;;;;;;;11.82;8.02;;;15.80;99.80;;;;;;4973370;28;20038;-79
2021/04/20 08:57:10;;;;;;;10.55;7.82;;;16.20;97.50;;;;;;5006709;28;20120;-77
2021/04/20 08:59:56;;;;;;;12.35;7.45;;;15.00;96.70;;;;;;5009678;28;20029;-80
2021/04/20 09:02:38;;;;;;;10.23;7.18;;;15.40;99.10;;;;;;4996326;28;20073;-79
2021/04/20 09:05:29;;;;;;;11.90;7.40;;;15.00;97.80;;;;;;5008653;28;20026;-79
2021/04/20 09:08:05;;;;;;;11.73;7.78;;;15.70;97.20;;;;;;5011365;28;20041;-77
2021/04/20 09:10:32;;;;;;;9.38;6.95;;;15.40;95.70;;;;;;4998943;28;20033;-78
2021/04/20 09:13:21;;;;;;;12.18;7.70;;;15.40;95.70;;;;;;5010408;28;20108;-76
2021/04/20 09:15:50;;;;;;;11.97;7.70;;;15.60;95.00;;;;;;4994946;28;20474;-76
2021/04/20 09:18:25;;;;;;;11.63;6.80;;;15.70;94.90;;;;;;5010742;28;20514;-75
2021/04/20 09:21:01;;;;;;;9.55;6.78;;;15.80;92.90;;;;;;5009740;28;20499;-76
2021/04/20 09:23:37;;;;;;;12.23;7.10;;;16.10;88.80;;;;;;5009678;28;20344;-77
2021/04/20 09:26:28;;;;;;;9.02;6.55;;;16.20;90.90;;;;;;5010419;28;20022;-77
2021/04/20 09:29:11;;;;;;;8.95;6.65;;;16.00;88.50;;;;;;5010739;28;20018;-80
2021/04/20 09:31:40;;;;;;;10.80;6.63;;;15.90;85.30;;;;;;4988803;28;20176;-72
2021/04/20 09:34:17;;;;;;;11.35;7.13;;;16.40;86.60;;;;;;5008662;28;20018;-77
2021/04/20 09:36:44;;;;;;;10.85;7.57;;;16.50;88.80;;;;;;5007774;28;20390;-79
2021/04/20 09:39:15;;;;;;;10.18;7.45;;;16.60;90.80;;;;;;5009092;28;20092;-77
2021/04/20 09:41:43;;;;;;;10.13;7.53;;;16.50;89.40;;;;;;5009224;28;20412;-78
2021/04/20 09:44:14;;;;;;;12.15;8.05;;;16.20;88.60;;;;;;5011309;28;20026;-79
2021/04/20 09:46:49;;;;;;;9.40;7.30;;;15.50;85.40;;;;;;5006322;28;20053;-75
2021/04/20 09:49:26;;;;;;;10.65;7.82;;;15.90;86.60;;;;;;5007143;28;20026;-78
2021/04/20 09:51:58;;;;;;;9.98;6.38;;;16.20;86.60;;;;;;5006255;28;20026;-77
2021/04/20 09:54:31;;;;;;;10.00;6.90;;;16.40;83.20;;;;;;5008880;28;20430;-75
2021/04/20 09:57:01;;;;;;;11.15;7.45;;;17.00;82.60;;;;;;5009058;28;20048;-79
2021/04/20 09:59:40;;;;;;;;;;;16.80;83.10;;;;;;5010343;28;20053;-77
2021/04/20 10:02:46;;;;;;;8.32;6.28;;;16.60;85.20;;;;;;5006834;28;19988;-75
2021/04/20 10:05:30;;;;;;;10.20;6.78;;;16.30;82.10;;;;;;5006515;28;20041;-76
2021/04/20 10:08:27;;;;;;;10.00;6.88;;;16.20;81.90;;;;;;5011416;28;20097;-78
2021/04/20 10:11:03;;;;;;;9.50;6.63;;;16.80;82.70;;;;;;5004527;28;20487;-78
2021/04/20 10:14:08;;;;;;;9.35;6.70;;;16.70;78.60;;;;;;4993068;28;20109;-79
2021/04/20 10:16:43;;;;;;;8.88;6.60;;;17.20;79.50;;;;;;5013651;28;20037;-78
2021/04/20 10:19:15;;;;;;;9.02;6.35;;;17.80;77.00;;;;;;4989634;28;20038;-79
2021/04/20 10:22:01;;;;;;;8.60;6.38;;;18.10;74.80;;;;;;4991693;28;20057;-79
2021/04/20 10:24:30;;;;;;;11.05;7.00;;;17.90;69.70;;;;;;5013775;28;20017;-76
2021/04/20 10:27:20;;;;;;;8.35;6.40;;;17.60;71.50;;;;;;5013774;28;20057;-76
2021/04/20 10:29:57;;;;;;;8.80;6.18;;;17.40;72.10;;;;;;5012508;28;20034;-77
2021/04/20 10:32:31;;;;;;;9.10;6.47;;;17.80;73.30;;;;;;5013211;28;20034;-78
2021/04/20 10:34:59;;;;;;;9.27;6.40;;;18.90;72.70;;;;;;5013537;28;20091;-76
2021/04/20 10:37:52;;;;;;;8.35;6.25;;;18.50;70.30;;;;;;5012970;28;20420;-78
2021/04/20 10:40:25;;;;;;;9.45;5.93;;;17.80;73.10;;;;;;5010322;28;20041;-79
2021/04/20 10:42:52;;;;;;;11.48;6.30;;;17.70;74.40;;;;;;5012904;28;20026;-79
2021/04/20 10:45:23;;;;;;;8.63;6.03;;;18.40;72.70;;;;;;5013293;28;20030;-78
2021/04/20 10:47:54;;;;;;;8.82;5.88;;;18.70;70.20;;;;;;5012023;28;20034;-79
2021/04/20 10:50:24;;;;;;;;;;;18.90;66.70;;;;;;5014147;28;20025;-79
2021/04/20 10:53:14;;;;;;;7.93;5.03;;;18.80;65.50;;;;;;5013000;28;20317;-82
2021/04/20 10:55:50;;;;;;;9.40;5.35;;;19.10;64.50;;;;;;5013405;28;20535;-79
2021/04/20 10:58:22;;;;;;;8.68;5.47;;;19.30;63.90;;;;;;5013515;28;20026;-82
2021/04/20 11:00:52;;;;;;;8.77;6.13;;;19.40;63.10;;;;;;5013303;28;20034;-81
2021/04/20 11:03:31;;;;;;;8.18;6.15;;;18.40;65.40;;;;;;5013618;28;20236;-78
2021/04/20 11:05:57;;;;;;;9.82;6.78;;;18.00;67.30;;;;;;5012361;28;20105;-79
2021/04/20 11:08:47;;;;;;;8.77;5.90;;;18.60;68.80;;;;;;5013745;28;20026;-79
2021/04/20 11:11:21;;;;;;;8.20;5.82;;;18.80;67.70;;;;;;5011980;28;20500;-77
2021/04/20 11:13:48;;;;;;;14.38;10.60;;;18.90;66.20;;;;;;5012721;28;20065;-77
2021/04/20 11:16:31;;;;;;;17.95;10.75;;;19.00;65.00;;;;;;5011059;28;20034;-78
2021/04/20 11:19:11;;;;;;;12.07;6.63;;;18.70;64.20;;;;;;5010528;28;20040;-75
2021/04/20 11:21:42;;;;;;;9.50;6.68;;;18.30;66.20;;;;;;5011737;28;20022;-78
2021/04/20 11:24:36;;;;;;;9.35;6.90;;;18.40;67.20;;;;;;4998869;28;20030;-74
2021/04/20 11:27:09;;;;;;;10.63;6.53;;;18.40;66.90;;;;;;5008186;28;20037;-75
2021/04/20 11:30:07;;;;;;;8.27;5.78;;;18.10;65.90;;;;;;5012253;28;20025;-74
2021/04/20 11:32:35;;;;;;;9.75;6.15;;;17.40;68.60;;;;;;5010849;28;20041;-75
2021/04/20 11:35:08;;;;;;;8.85;6.57;;;17.90;68.50;;;;;;4993295;28;20168;-75
2021/04/20 11:37:35;;;;;;;8.75;6.35;;;18.20;69.20;;;;;;5002205;28;20536;-75
2021/04/20 11:40:16;;;;;;;8.77;6.72;;;18.10;67.60;;;;;;5001650;28;20030;-74
2021/04/20 11:42:48;;;;;;;9.25;6.45;;;17.70;68.80;;;;;;5010016;28;20036;-72
2021/04/20 11:45:23;;;;;;;8.90;5.93;;;18.60;67.80;;;;;;5000754;28;20027;-76
2021/04/20 11:48:01;;;;;;;9.02;6.38;;;18.50;66.30;;;;;;5010870;28;20648;-72
2021/04/20 11:50:34;;;;;;;10.07;7.10;;;17.70;68.90;;;;;;5010999;28;20026;-72
2021/04/20 11:53:10;;;;;;;8.88;5.82;;;18.10;69.10;;;;;;5008693;28;20022;-73
2021/04/20 11:55:43;;;;;;;11.27;7.45;;;18.40;68.00;;;;;;5011674;28;20045;-75
2021/04/20 11:58:33;;;;;;;9.63;6.97;;;19.00;68.50;;;;;;5010744;28;20096;-74
2021/04/20 12:01:11;;;;;;;8.83;5.97;;;18.70;65.10;;;;;;5004031;28;20038;-73
2021/04/20 12:03:53;;;;;;;9.23;7.13;;;18.20;65.30;;;;;;5010566;28;20094;-72
2021/04/20 12:06:20;;;;;;;7.70;5.72;;;18.10;65.90;;;;;;5010977;28;20037;-75
2021/04/20 12:08:53;;;;;;;9.88;6.50;;;17.90;65.90;;;;;;5010701;28;20516;-75
2021/04/20 12:11:19;;;;;;;9.90;6.57;;;18.50;68.20;;;;;;5011222;28;20018;-72
2021/04/20 12:13:49;;;;;;;9.57;6.25;;;19.10;64.60;;;;;;5010945;28;20029;-76
2021/04/20 12:16:16;;;;;;;9.00;6.25;;;18.00;66.10;;;;;;5011760;28;20057;-75
2021/04/20 12:18:45;;;;;;;9.23;6.13;;;17.90;66.70;;;;;;5010341;28;20030;-71
2021/04/20 12:21:18;;;;;;;8.65;6.20;;;18.20;65.80;;;;;;5011294;28;20127;-72
2021/04/20 12:23:49;;;;;;;10.35;5.70;;;18.70;66.20;;;;;;5010736;28;20117;-73
2021/04/20 12:26:16;;;;;;;8.93;6.28;;;19.20;64.40;;;;;;5011571;28;20090;-75
2021/04/20 12:28:48;;;;;;;8.48;5.85;;;19.70;62.10;;;;;;5009662;28;20057;-73
2021/04/20 12:31:15;;;;;;;7.70;5.65;;;19.60;60.50;;;;;;5012532;28;20033;-76
2021/04/20 12:33:45;;;;;;;11.30;5.47;;;19.10;60.70;;;;;;5011035;28;20029;-74
2021/04/20 12:36:31;;;;;;;8.18;5.53;;;18.30;62.90;;;;;;5011048;28;20046;-73
2021/04/20 12:39:03;;;;;;;7.28;5.45;;;17.70;63.80;;;;;;5007399;28;20022;-77
2021/04/20 12:41:33;;;;;;;9.40;5.85;;;17.80;65.20;;;;;;5010534;28;20100;-77
2021/04/20 12:44:07;;;;;;;6.82;5.28;;;17.40;65.50;;;;;;5010611;28;20014;-76
2021/04/20 12:46:34;;;;;;;7.95;5.72;;;17.20;65.10;;;;;;5008262;28;20033;-76
2021/04/20 12:49:03;;;;;;;7.93;5.65;;;17.20;65.30;;;;;;5009532;28;20018;-75
2021/04/20 12:51:32;;;;;;;7.63;5.68;;;17.10;64.50;;;;;;5011122;28;20057;-75
2021/04/20 12:54:00;;;;;;;8.77;5.10;;;16.80;64.90;;;;;;5009476;28;20026;-74
2021/04/20 12:56:39;;;;;;;7.60;5.50;;;16.90;65.20;;;;;;5010135;28;20072;-74
2021/04/20 12:59:15;;;;;;;8.30;5.47;;;16.80;65.00;;;;;;5007135;28;20014;-76
2021/04/20 13:01:42;;;;;;;8.40;5.85;;;16.50;64.90;;;;;;5008158;28;20030;-75
2021/04/20 13:04:09;;;;;;;10.77;5.47;;;16.10;66.90;;;;;;4991729;28;20028;-73
2021/04/20 13:06:35;;;;;;;17.65;10.20;;;15.20;76.20;;;;;;5009973;28;20121;-73
2021/04/20 13:09:02;;;;;;;7.57;5.82;;;14.60;82.00;;;;;;5008709;28;20014;-73
2021/04/20 13:11:38;;;;;;;7.22;5.50;;;14.30;85.90;;;;;;5006361;28;20037;-76
2021/04/20 13:14:05;;;;;;;9.23;5.68;;;14.60;90.90;;;;;;4987887;28;20116;-75
2021/04/20 13:16:33;;;;;;;12.38;8.48;;;14.30;94.10;;;;;;5010201;28;20030;-76